Time;durP1;ratioP1;P1;durP2;ratioP2;P2;SDS_P1;SDS_P2;PMS_P1;PMS_P2;Temp;Humidity;BMP_temperature;BMP_pressure;BME280_temperature;BME280_humidity;BME280_pressure;Samples;Min_cycle;Max_cycle;Signal;HPM_P1;HPM_P2
2023/08/16 00:02:25;;;;;;;10.13;9.15;;;;;;;19.47;100.00;101375.75;6148706;23;20023;-70
2023/08/16 00:04:52;;;;;;;10.32;9.43;;;;;;;19.28;100.00;101377.22;6179454;23;20170;-69
2023/08/16 00:07:18;;;;;;;9.75;8.63;;;;;;;18.59;100.00;101254.88;6175295;23;20509;-69
2023/08/16 00:09:44;;;;;;;12.40;9.52;;;;;;;19.31;100.00;101382.28;6173405;23;20024;-70
2023/08/16 00:12:11;;;;;;;9.38;8.57;;;;;;;18.75;100.00;101291.75;6202482;23;20044;-72
2023/08/16 00:14:37;;;;;;;11.38;9.85;;;;;;;19.19;100.00;101377.09;6174967;23;20064;-70
2023/08/16 00:17:04;;;;;;;9.82;8.88;;;;;;;18.45;100.00;101279.00;6175438;23;20479;-70
2023/08/16 00:19:30;;;;;;;12.30;10.35;;;;;;;19.10;100.00;101394.59;6147320;23;20028;-72
2023/08/16 00:21:59;;;;;;;9.85;8.95;;;;;;;18.92;100.00;101380.88;6174503;23;20095;-70
2023/08/16 00:24:26;;;;;;;10.68;9.68;;;;;;;18.69;100.00;101348.06;6200531;23;20087;-70
2023/08/16 00:26:52;;;;;;;10.65;9.50;;;;;;;18.04;100.00;101261.69;6174566;23;20596;-70
2023/08/16 00:29:20;;;;;;;12.52;9.23;;;;;;;18.13;100.00;101261.88;6171550;23;20619;-70
2023/08/16 00:31:46;;;;;;;9.90;9.10;;;;;;;18.87;100.00;101386.56;6176278;23;20047;-70
2023/08/16 00:34:13;;;;;;;11.57;9.10;;;;;;;17.18;100.00;101124.69;6180706;23;20019;-70
2023/08/16 00:36:39;;;;;;;9.10;8.18;;;;;;;18.81;100.00;101376.41;6205382;23;20051;-70
2023/08/16 00:39:06;;;;;;;10.55;9.55;;;;;;;18.83;100.00;101374.47;6168637;23;20040;-70
2023/08/16 00:41:33;;;;;;;10.38;9.13;;;;;;;18.88;100.00;101387.41;6202412;23;20066;-70
2023/08/16 00:43:59;;;;;;;15.38;9.95;;;;;;;18.76;100.00;101383.84;6199344;23;20020;-70
2023/08/16 00:46:27;;;;;;;14.50;9.38;;;;;;;18.05;100.00;101276.69;6187046;23;21341;-70
2023/08/16 00:48:54;;;;;;;10.82;9.15;;;;;;;18.61;100.00;101377.88;6202387;23;20008;-70
2023/08/16 00:51:21;;;;;;;9.93;9.02;;;;;;;18.60;100.00;101370.88;6199970;23;20043;-70
2023/08/16 00:53:49;;;;;;;9.48;8.57;;;;;;;18.58;100.00;101375.44;6203126;23;20508;-70
2023/08/16 00:56:16;;;;;;;9.68;8.70;;;;;;;17.90;100.00;101265.38;6200656;23;20028;-70
2023/08/16 00:58:43;;;;;;;10.20;9.20;;;;;;;18.51;100.00;101372.41;6154589;23;20062;-70
2023/08/16 01:01:10;;;;;;;9.27;8.38;;;;;;;18.57;100.00;101386.22;6202183;23;20587;-70
2023/08/16 01:03:37;;;;;;;11.90;8.30;;;;;;;17.44;100.00;101224.47;6181906;23;20720;-70
2023/08/16 01:06:04;;;;;;;8.90;8.18;;;;;;;18.48;100.00;101379.75;6201153;23;20082;-70
2023/08/16 01:08:32;;;;;;;9.18;8.35;;;;;;;18.45;100.00;101383.50;6156874;23;20714;-70
2023/08/16 01:11:02;;;;;;;9.23;8.48;;;;;;;18.40;100.00;101380.34;6176100;23;20116;-71
2023/08/16 01:13:49;;;;;;;9.05;8.25;;;;;;;18.36;100.00;101384.16;6175949;23;20020;-69
2023/08/16 01:16:17;;;;;;;9.77;8.82;;;;;;;18.25;100.00;101365.53;6177289;23;20052;-70
2023/08/16 01:18:44;;;;;;;9.55;8.48;;;;;;;18.05;100.00;101343.94;6197587;23;20065;-69
2023/08/16 01:21:15;;;;;;;9.27;8.48;;;;;;;17.37;100.00;101231.16;6201355;23;20091;-70
2023/08/16 01:24:04;;;;;;;8.55;7.85;;;;;;;18.30;100.00;101392.59;6201660;23;20023;-69
2023/08/16 01:26:35;;;;;;;9.27;8.45;;;;;;;17.82;100.00;101315.53;6193707;23;20533;-70
2023/08/16 01:29:04;;;;;;;9.43;8.13;;;;;;;18.20;100.00;101395.09;6170971;23;20020;-70
2023/08/16 01:31:33;;;;;;;11.43;8.07;;;;;;;18.07;100.00;101373.03;6191524;23;20056;-69
2023/08/16 01:33:59;;;;;;;8.68;7.97;;;;;;;17.38;100.00;101267.38;6139663;23;20013;-69
2023/08/16 01:36:27;;;;;;;8.07;7.45;;;;;;;17.19;100.00;101237.81;6170767;23;20083;-70
2023/08/16 01:38:55;;;;;;;9.18;8.02;;;;;;;18.12;100.00;101402.75;6153422;23;20027;-72
2023/08/16 01:41:31;;;;;;;8.13;7.32;;;;;;;17.86;100.00;101378.09;6202448;23;20044;-70
2023/08/16 01:43:59;;;;;;;8.13;7.47;;;;;;;18.02;100.00;101407.03;6168099;23;20089;-70
2023/08/16 01:46:27;;;;;;;9.68;8.77;;;;;;;17.96;100.00;101413.69;6168815;23;20028;-69
2023/08/16 01:48:55;;;;;;;9.23;8.32;;;;;;;17.93;100.00;101413.88;6201851;23;20042;-70
2023/08/16 01:51:22;;;;;;;8.48;7.78;;;;;;;17.30;100.00;101328.09;6151291;23;20545;-70
2023/08/16 01:53:53;;;;;;;9.77;8.60;;;;;;;17.10;100.00;101303.81;6195553;23;20563;-70
2023/08/16 01:56:21;;;;;;;8.57;7.78;;;;;;;16.97;100.00;101271.13;6177284;23;20085;-70
2023/08/16 01:58:48;;;;;;;9.48;8.60;;;;;;;17.85;100.00;101422.38;6200454;23;20019;-69
2023/08/16 02:01:15;;;;;;;8.90;8.23;;;;;;;17.81;100.00;101409.41;6208015;23;20028;-70
2023/08/16 02:03:41;;;;;;;9.65;8.07;;;;;;;17.39;100.00;101356.59;6176904;23;20014;-69
2023/08/16 02:06:08;;;;;;;9.38;8.57;;;;;;;17.80;100.00;101415.69;6203642;23;20024;-70
2023/08/16 02:08:35;;;;;;;8.93;8.13;;;;;;;17.15;100.00;101320.22;6203141;23;20023;-69
2023/08/16 02:11:01;;;;;;;9.85;8.00;;;;;;;17.65;100.00;101396.38;6204230;23;20589;-71
2023/08/16 02:13:28;;;;;;;9.30;8.55;;;;;;;17.66;100.00;101406.03;6175574;23;20024;-69
2023/08/16 02:16:02;;;;;;;8.82;8.02;;;;;;;17.72;100.00;101419.75;6178823;23;20016;-73
2023/08/16 02:18:30;;;;;;;9.15;8.25;;;;;;;17.72;100.00;101433.00;6196682;23;20039;-69
2023/08/16 02:20:57;;;;;;;9.63;8.80;;;;;;;17.73;100.00;101424.06;6174682;23;20505;-70
2023/08/16 02:23:24;;;;;;;8.43;7.72;;;;;;;16.74;100.00;101257.66;6184096;23;20031;-70
2023/08/16 02:25:50;;;;;;;9.27;8.45;;;;;;;17.67;100.00;101426.31;6175637;23;20047;-71
2023/08/16 02:28:19;;;;;;;9.25;8.45;;;;;;;16.82;100.00;101277.50;6202661;23;20714;-70
2023/08/16 02:30:45;;;;;;;9.65;7.80;;;;;;;17.70;100.00;101412.81;6175093;23;20083;-70
2023/08/16 02:33:12;;;;;;;9.35;8.50;;;;;;;17.54;100.00;101382.06;6175138;23;20398;-69
2023/08/16 02:35:39;;;;;;;9.27;8.48;;;;;;;17.64;100.00;101392.03;6181265;23;20032;-69
2023/08/16 02:38:05;;;;;;;10.35;8.65;;;;;;;16.85;100.00;101251.63;6181249;23;20103;-69
2023/08/16 02:40:32;;;;;;;9.43;8.63;;;;;;;17.87;100.00;101414.31;6199602;23;20059;-69
2023/08/16 02:42:59;;;;;;;9.10;8.30;;;;;;;17.11;100.00;101294.88;6169699;23;20028;-70
2023/08/16 02:45:25;;;;;;;9.52;8.60;;;;;;;17.43;100.00;101350.13;6202719;23;20030;-70
2023/08/16 02:47:52;;;;;;;11.85;8.57;;;;;;;16.92;100.00;101265.31;6202754;23;20024;-70
2023/08/16 02:50:22;;;;;;;10.48;8.68;;;;;;;17.74;100.00;101420.47;6182664;23;20524;-69
2023/08/16 02:52:48;;;;;;;9.57;8.77;;;;;;;17.42;100.00;101356.41;6180018;23;20425;-69
2023/08/16 02:55:15;;;;;;;8.77;7.97;;;;;;;17.94;100.00;101432.38;6206044;23;20039;-70
2023/08/16 02:57:41;;;;;;;9.77;8.65;;;;;;;17.93;100.00;101432.47;6171368;23;20017;-70
2023/08/16 03:00:09;;;;;;;9.27;8.48;;;;;;;17.93;100.00;101443.09;6203356;23;20039;-69
2023/08/16 03:02:36;;;;;;;10.88;8.65;;;;;;;16.89;100.00;101257.56;6176534;23;20197;-69
2023/08/16 03:05:03;;;;;;;9.65;8.75;;;;;;;17.92;100.00;101433.41;6178333;23;20024;-69
2023/08/16 03:07:30;;;;;;;10.20;9.20;;;;;;;17.69;100.00;101390.75;6202678;23;19996;-69
2023/08/16 03:09:57;;;;;;;9.10;8.30;;;;;;;17.07;100.00;101303.16;6202506;23;20024;-69
2023/08/16 03:12:23;;;;;;;8.65;7.95;;;;;;;17.77;100.00;101435.34;6175221;23;20024;-70
2023/08/16 03:14:50;;;;;;;9.68;8.68;;;;;;;16.56;100.00;101224.47;6199968;23;20612;-70
2023/08/16 03:17:16;;;;;;;8.93;8.13;;;;;;;17.71;100.00;101427.81;6178130;23;20023;-71
2023/08/16 03:19:43;;;;;;;8.45;7.75;;;;;;;16.83;100.00;101276.56;6200958;23;20037;-70
2023/08/16 03:22:09;;;;;;;9.35;8.48;;;;;;;17.26;100.00;101355.75;6199835;23;20034;-70
2023/08/16 03:24:36;;;;;;;8.68;7.88;;;;;;;17.68;100.00;101418.25;6198077;23;20093;-70
2023/08/16 03:27:02;;;;;;;9.30;8.43;;;;;;;16.55;100.00;101233.38;6175751;23;20028;-70
2023/08/16 03:29:29;;;;;;;8.95;8.07;;;;;;;17.45;100.00;101376.56;6204108;23;20079;-71
2023/08/16 03:31:55;;;;;;;8.65;7.95;;;;;;;16.73;100.00;101268.34;6203292;23;20047;-70
2023/08/16 03:34:22;;;;;;;8.98;7.65;;;;;;;17.54;100.00;101405.13;6173135;23;20028;-71
2023/08/16 03:36:49;;;;;;;8.65;7.85;;;;;;;17.51;100.00;101416.78;6205331;23;20505;-70
2023/08/16 03:39:15;;;;;;;9.32;8.52;;;;;;;17.66;100.00;101421.97;6168255;23;20035;-70
2023/08/16 03:41:42;;;;;;;12.02;8.50;;;;;;;17.15;100.00;101357.38;6198845;23;21747;-71
2023/08/16 03:44:08;;;;;;;9.45;8.65;;;;;;;17.85;100.00;101470.19;6200984;23;20042;-70
2023/08/16 03:46:35;;;;;;;8.60;7.90;;;;;;;17.13;100.00;101353.13;6199036;23;20052;-70
2023/08/16 03:49:02;;;;;;;9.25;8.52;;;;;;;17.74;100.00;101449.69;6196816;23;20133;-70
2023/08/16 03:51:28;;;;;;;9.40;8.02;;;;;;;17.97;100.00;101470.28;6205015;23;20020;-70
2023/08/16 03:53:55;;;;;;;8.63;7.82;;;;;;;18.02;100.00;101490.25;6204493;23;20040;-70
2023/08/16 03:56:22;;;;;;;9.20;8.40;;;;;;;17.91;100.00;101464.44;6175480;23;20032;-70
2023/08/16 03:58:48;;;;;;;11.35;8.18;;;;;;;18.04;100.00;101485.69;6199684;23;20490;-70
2023/08/16 04:01:15;;;;;;;8.73;7.93;;;;;;;17.15;100.00;101330.84;6172708;23;20098;-70
2023/08/16 04:03:42;;;;;;;9.27;8.48;;;;;;;17.94;100.00;101460.72;6201019;23;21467;-70
2023/08/16 04:06:12;;;;;;;9.82;8.93;;;;;;;18.07;100.00;101487.25;6202898;23;20501;-70
2023/08/16 04:08:39;;;;;;;9.20;8.40;;;;;;;16.98;100.00;101338.25;6180161;23;20365;-70
2023/08/16 04:11:06;;;;;;;9.48;8.57;;;;;;;18.11;100.00;101488.75;6200526;23;20032;-70
2023/08/16 04:13:33;;;;;;;9.57;8.15;;;;;;;17.19;100.00;101346.56;6200166;23;20112;-70
2023/08/16 04:16:00;;;;;;;10.38;8.20;;;;;;;18.10;100.00;101484.38;6201691;23;20102;-70
2023/08/16 04:18:27;;;;;;;9.02;8.23;;;;;;;18.27;100.00;101484.03;6183795;23;20046;-71
2023/08/16 04:20:53;;;;;;;8.82;8.02;;;;;;;18.18;100.00;101471.41;6201354;23;20091;-70
2023/08/16 04:23:21;;;;;;;9.02;8.23;;;;;;;18.26;100.00;101490.31;6174534;23;20020;-71
2023/08/16 04:25:48;;;;;;;9.23;8.45;;;;;;;18.27;100.00;101499.13;6205630;23;20014;-70
2023/08/16 04:28:15;;;;;;;9.00;8.20;;;;;;;18.33;100.00;101480.91;6202600;23;20383;-71
2023/08/16 04:30:41;;;;;;;10.82;8.82;;;;;;;18.36;100.00;101481.66;6202092;23;20868;-70
2023/08/16 04:33:08;;;;;;;10.40;9.40;;;;;;;18.32;100.00;101478.38;6198687;23;20578;-71
2023/08/16 04:35:34;;;;;;;9.23;8.38;;;;;;;18.30;100.00;101473.19;6204118;23;20024;-71
2023/08/16 04:38:01;;;;;;;9.65;8.43;;;;;;;18.20;100.00;101450.03;6200566;23;20083;-71
2023/08/16 04:40:27;;;;;;;10.90;9.57;;;;;;;18.39;100.00;101466.34;6201666;23;20044;-71
2023/08/16 04:42:54;;;;;;;10.80;9.75;;;;;;;18.27;100.00;101438.84;6198403;23;20023;-71
2023/08/16 04:45:20;;;;;;;9.63;8.77;;;;;;;18.50;100.00;101477.03;6145123;23;20043;-70
2023/08/16 04:47:47;;;;;;;10.75;9.57;;;;;;;18.44;100.00;101461.56;6190577;23;20037;-71
2023/08/16 04:50:13;;;;;;;12.95;9.98;;;;;;;18.37;100.00;101441.69;6177886;23;20037;-70
2023/08/16 04:52:40;;;;;;;10.65;9.65;;;;;;;18.36;100.00;101437.31;6177187;23;20237;-71
2023/08/16 04:55:07;;;;;;;11.65;10.43;;;;;;;18.46;100.00;101453.44;6197737;23;20028;-71
2023/08/16 04:57:34;;;;;;;11.55;10.18;;;;;;;18.34;100.00;101442.75;6170679;23;20740;-71
2023/08/16 05:00:03;;;;;;;14.45;10.20;;;;;;;18.39;100.00;101433.59;6198741;23;20027;-70
2023/08/16 05:02:30;;;;;;;10.88;9.77;;;;;;;18.37;100.00;101423.09;6202728;23;20017;-70
2023/08/16 05:04:57;;;;;;;11.18;9.95;;;;;;;18.49;100.00;101437.28;6173214;23;20033;-70
2023/08/16 05:07:23;;;;;;;10.60;9.40;;;;;;;18.66;100.00;101446.66;6199006;23;20031;-71
2023/08/16 05:09:50;;;;;;;13.73;10.27;;;;;;;18.50;100.00;101407.06;6204148;23;20024;-71
2023/08/16 05:12:16;;;;;;;11.20;9.40;;;;;;;18.43;100.00;101412.00;6199923;23;20091;-70
2023/08/16 05:14:43;;;;;;;13.55;9.57;;;;;;;18.49;100.00;101424.00;6171803;23;20428;-70
2023/08/16 05:17:09;;;;;;;12.63;9.40;;;;;;;17.72;100.00;101312.69;6202360;23;20147;-71
2023/08/16 05:19:36;;;;;;;16.55;9.73;;;;;;;17.40;100.00;101262.81;6177232;23;20029;-70
2023/08/16 05:22:02;;;;;;;10.05;9.05;;;;;;;17.47;100.00;101279.13;6194658;23;20044;-71
2023/08/16 05:24:29;;;;;;;9.27;8.48;;;;;;;18.43;100.00;101427.09;6172119;23;20605;-70
2023/08/16 05:26:58;;;;;;;10.25;8.40;;;;;;;17.57;100.00;101296.06;6173341;23;20045;-71
2023/08/16 05:29:24;;;;;;;9.80;8.80;;;;;;;18.44;100.00;101436.75;6171903;23;20028;-71
2023/08/16 05:31:54;;;;;;;9.60;8.60;;;;;;;18.47;100.00;101447.19;6175103;23;20109;-71
2023/08/16 05:34:24;;;;;;;13.38;8.98;;;;;;;17.86;100.00;101339.13;6203223;23;20020;-71
2023/08/16 05:36:50;;;;;;;8.80;7.93;;;;;;;18.55;100.00;101452.78;6207863;23;20573;-72
2023/08/16 05:39:17;;;;;;;9.85;8.75;;;;;;;18.51;100.00;101436.19;6174716;23;20024;-71
2023/08/16 05:41:43;;;;;;;10.15;9.15;;;;;;;18.63;100.00;101441.56;6202094;23;20020;-71
2023/08/16 05:44:17;;;;;;;10.07;9.18;;;;;;;18.71;100.00;101440.03;6178171;23;20497;-70
2023/08/16 05:46:44;;;;;;;8.73;7.93;;;;;;;18.71;100.00;101402.81;6205210;23;20018;-71
2023/08/16 05:49:10;;;;;;;9.45;8.57;;;;;;;18.84;100.00;101416.06;6198424;22;20031;-70
2023/08/16 05:51:37;;;;;;;8.82;7.90;;;;;;;18.90;100.00;101406.75;6203506;23;20459;-71
2023/08/16 05:54:04;;;;;;;9.15;8.38;;;;;;;17.34;100.00;101133.25;6175986;23;20685;-70
2023/08/16 05:56:30;;;;;;;9.77;8.20;;;;;;;17.84;100.00;101234.84;6203080;23;20422;-70
2023/08/16 05:58:57;;;;;;;9.63;8.73;;;;;;;18.28;100.00;101275.81;6204035;23;20016;-71
2023/08/16 06:01:23;;;;;;;8.77;7.80;;;;;;;18.86;100.00;101344.13;6177656;23;20485;-71
2023/08/16 06:03:50;;;;;;;12.85;8.30;;;;;;;18.16;100.00;101250.16;6206028;23;20012;-70
2023/08/16 06:06:16;;;;;;;9.32;8.43;;;;;;;18.98;100.00;101392.88;6202108;23;20827;-71
2023/08/16 06:08:43;;;;;;;8.88;8.07;;;;;;;18.97;100.00;101399.19;6154864;23;20103;-71
2023/08/16 06:11:09;;;;;;;9.32;8.43;;;;;;;17.95;100.00;101231.38;6205082;23;20047;-70
2023/08/16 06:13:36;;;;;;;9.02;8.23;;;;;;;18.97;100.00;101394.69;6202683;23;20016;-70
2023/08/16 06:16:03;;;;;;;9.00;8.15;;;;;;;18.74;100.00;101354.72;6177691;23;20498;-70
2023/08/16 06:18:29;;;;;;;9.77;8.80;;;;;;;18.94;100.00;101389.59;6199778;23;20080;-70
2023/08/16 06:20:56;;;;;;;9.82;8.30;;;;;;;18.76;100.00;101353.75;6177190;23;20502;-70
2023/08/16 06:23:22;;;;;;;8.40;7.65;;;;;;;18.21;100.00;101269.25;6199699;23;21326;-70
2023/08/16 06:25:49;;;;;;;8.85;8.05;;;;;;;19.10;100.00;101406.09;6181244;23;20080;-71
2023/08/16 06:28:15;;;;;;;12.57;8.75;;;;;;;18.79;100.00;101364.16;6204291;23;20012;-69
2023/08/16 06:30:42;;;;;;;9.20;8.30;;;;;;;18.17;100.00;101251.03;6199378;23;20040;-69
2023/08/16 06:33:08;;;;;;;8.65;7.85;;;;;;;18.86;100.00;101346.78;6205711;23;20048;-70
2023/08/16 06:35:35;;;;;;;9.80;8.80;;;;;;;19.23;100.00;101374.06;6201243;23;20024;-70
2023/08/16 06:38:02;;;;;;;10.43;8.23;;;;;;;19.52;100.00;101385.09;6173536;23;20042;-70
2023/08/16 06:40:29;;;;;;;8.65;7.88;;;;;;;19.69;100.00;101380.22;6205248;23;20028;-70
2023/08/16 06:42:55;;;;;;;8.90;8.20;;;;;;;19.70;100.00;101339.28;6200351;23;20020;-70
2023/08/16 06:45:22;;;;;;;8.95;7.97;;;;;;;19.26;100.00;101254.09;6178285;23;20606;-70
2023/08/16 06:47:49;;;;;;;9.35;8.45;;;;;;;18.85;100.00;101191.69;6199989;23;20027;-70
2023/08/16 06:50:15;;;;;;;11.25;9.18;;;;;;;18.81;100.00;101179.63;6204137;23;20094;-69
2023/08/16 06:52:42;;;;;;;8.77;7.97;;;;;;;19.88;100.00;101353.81;6176463;23;20126;-71
2023/08/16 06:55:09;;;;;;;8.68;7.88;;;;;;;19.91;100.00;101340.25;6200679;23;20047;-70
2023/08/16 06:57:35;;;;;;;13.63;9.35;;;;;;;19.81;100.00;101309.19;6176121;23;20395;-69
2023/08/16 07:00:03;;;;;;;9.27;8.38;;;;;;;19.37;100.00;101212.44;6201434;23;20716;-71
2023/08/16 07:02:30;;;;;;;9.73;8.48;;;;;;;19.95;100.00;101305.41;6157649;23;21327;-70
2023/08/16 07:04:58;;;;;;;9.50;8.60;;;;;;;19.90;100.00;101287.09;6197552;23;20035;-70
2023/08/16 07:07:24;;;;;;;10.48;8.45;;;;;;;20.10;100.00;101331.59;6201579;23;20012;-69
2023/08/16 07:09:51;;;;;;;9.85;8.85;;;;;;;20.03;100.00;101294.94;6206919;23;20052;-70
2023/08/16 07:12:17;;;;;;;9.93;8.40;;;;;;;20.45;100.00;101316.31;6167946;23;20126;-70
2023/08/16 07:14:44;;;;;;;10.05;8.73;;;;;;;19.64;100.00;101177.38;6177226;23;20019;-69
2023/08/16 07:17:10;;;;;;;11.18;8.95;;;;;;;20.48;100.00;101306.22;6202357;23;20076;-70
2023/08/16 07:19:37;;;;;;;9.40;8.60;;;;;;;20.78;100.00;101325.13;6197137;23;20043;-70
2023/08/16 07:22:03;;;;;;;13.30;9.05;;;;;;;19.10;100.00;101067.34;6176321;23;20024;-70
2023/08/16 07:24:30;;;;;;;11.48;9.30;;;;;;;20.10;100.00;101318.28;6202727;23;20082;-70
2023/08/16 07:26:57;;;;;;;11.85;9.35;;;;;;;20.07;100.00;101342.53;6197454;23;20031;-70
2023/08/16 07:29:24;;;;;;;19.38;10.95;;;;;;;19.67;100.00;101281.81;6173640;23;20028;-70
2023/08/16 07:31:54;;;;;;;11.13;9.98;;;;;;;20.13;100.00;101314.53;6179038;23;20111;-71
2023/08/16 07:34:21;;;;;;;12.35;10.00;;;;;;;20.47;100.00;101349.88;6201980;23;20114;-70
2023/08/16 07:36:47;;;;;;;11.55;10.25;;;;;;;20.55;100.00;101332.38;6206873;23;20038;-70
2023/08/16 07:39:14;;;;;;;11.25;10.05;;;;;;;20.46;100.00;101340.16;6203380;23;20044;-71
2023/08/16 07:41:40;;;;;;;11.65;10.40;;;;;;;20.50;100.00;101343.44;6204299;23;20012;-70
2023/08/16 07:44:07;;;;;;;14.52;10.68;;;;;;;20.10;100.00;101283.63;6202484;23;20034;-70
2023/08/16 07:46:33;;;;;;;12.20;10.95;;;;;;;19.31;100.00;101182.69;6175192;23;20471;-70
2023/08/16 07:49:01;;;;;;;10.68;9.65;;;;;;;20.15;100.00;101349.88;6175819;23;20090;-71
2023/08/16 07:51:28;;;;;;;12.40;10.70;;;;;;;19.55;100.00;101245.53;6146957;23;20666;-72
2023/08/16 07:53:54;;;;;;;13.68;11.10;;;;;;;19.33;100.00;101210.00;6178731;23;20028;-70
2023/08/16 07:56:21;;;;;;;12.95;11.00;;;;;;;20.43;100.00;101376.94;6181278;23;20075;-71
2023/08/16 07:58:47;;;;;;;12.35;11.02;;;;;;;20.46;100.00;101392.66;6202804;23;20016;-69
2023/08/16 08:01:13;;;;;;;14.88;10.95;;;;;;;19.68;100.00;101256.03;6177504;23;20113;-71
2023/08/16 08:03:40;;;;;;;14.02;11.40;;;;;;;20.09;100.00;101361.91;6200304;23;20640;-71
2023/08/16 08:06:09;;;;;;;13.95;11.93;;;;;;;19.89;100.00;101370.66;6170927;23;20029;-70
2023/08/16 08:08:35;;;;;;;18.48;12.50;;;;;;;19.90;100.00;101367.84;6205030;23;20039;-69
2023/08/16 08:11:02;;;;;;;15.02;12.35;;;;;;;19.97;100.00;101362.06;6210151;23;20027;-70
2023/08/16 08:13:28;;;;;;;15.60;12.95;;;;;;;19.99;100.00;101333.47;6200547;23;20039;-70
2023/08/16 08:15:55;;;;;;;17.05;13.10;;;;;;;20.29;100.00;101370.91;6161131;23;20095;-70
2023/08/16 08:18:21;;;;;;;15.32;11.85;;;;;;;20.41;100.00;101365.53;6200683;23;20038;-70
2023/08/16 08:20:48;;;;;;;14.15;11.93;;;;;;;20.91;100.00;101395.97;6175175;23;20051;-70
2023/08/16 08:23:15;;;;;;;14.88;10.93;;;;;;;20.17;100.00;101233.34;6201258;23;20044;-70
2023/08/16 08:25:44;;;;;;;14.30;11.93;;;;;;;20.91;100.00;101357.78;6174931;23;20443;-71
2023/08/16 08:28:11;;;;;;;13.02;11.63;;;;;;;20.23;100.00;101218.66;6201649;23;20015;-73
2023/08/16 08:30:37;;;;;;;14.63;11.82;;;;;;;21.08;100.00;101313.63;6205985;23;20768;-70
2023/08/16 08:33:04;;;;;;;16.58;12.13;;;;;;;20.79;100.00;101301.00;6204829;23;20059;-71
2023/08/16 08:35:33;;;;;;;14.65;12.75;;;;;;;20.80;100.00;101326.69;6202528;23;20510;-72
2023/08/16 08:37:59;;;;;;;14.18;12.18;;;;;;;20.87;100.00;101338.53;6201780;23;20099;-70
2023/08/16 08:40:30;;;;;;;13.70;12.20;;;;;;;20.86;100.00;101315.47;6201346;23;20040;-72
2023/08/16 08:42:58;;;;;;;16.67;12.32;;;;;;;21.19;100.00;101344.72;6202975;23;20046;-71
2023/08/16 08:45:27;;;;;;;14.65;12.25;;;;;;;21.19;100.00;101308.22;6203601;23;20115;-71
2023/08/16 08:47:57;;;;;;;16.35;12.02;;;;;;;20.84;100.00;101304.09;6197931;23;20027;-69
2023/08/16 08:50:24;;;;;;;18.92;11.60;;;;;;;20.85;100.00;101366.31;6195319;23;20120;-70
2023/08/16 08:52:55;;;;;;;13.63;12.15;;;;;;;20.68;100.00;101306.41;6175984;23;20032;-70
2023/08/16 08:55:25;;;;;;;16.60;13.00;;;;;;;20.93;100.00;101326.50;6200098;23;20028;-70
2023/08/16 08:57:56;;;;;;;14.25;11.65;;;;;;;20.19;100.00;101179.94;6199688;23;20473;-70
2023/08/16 09:00:27;;;;;;;15.20;12.60;;;;;;;21.32;100.00;101303.47;6202335;23;20103;-70
2023/08/16 09:02:56;;;;;;;12.80;11.40;;;;;;;21.38;100.00;101290.56;6206113;23;20049;-70
2023/08/16 09:05:25;;;;;;;16.30;12.32;;;;;;;21.09;100.00;101249.44;6176268;23;20043;-70
2023/08/16 09:07:52;;;;;;;15.57;12.00;;;;;;;21.14;100.00;101222.34;6189806;23;20529;-70
2023/08/16 09:10:19;;;;;;;15.50;12.32;;;;;;;21.51;100.00;101275.19;6205753;23;20036;-70
2023/08/16 09:12:48;;;;;;;14.50;12.75;;;;;;;21.50;100.00;101268.97;6156261;23;20009;-71
2023/08/16 09:15:14;;;;;;;14.57;11.95;;;;;;;20.44;100.00;101118.16;6207736;23;20008;-71
2023/08/16 09:17:41;;;;;;;14.50;11.57;;;;;;;21.34;100.00;101289.97;6205733;23;20121;-70
2023/08/16 09:20:08;;;;;;;17.17;13.02;;;;;;;20.95;100.00;101311.19;6180412;23;20028;-71
2023/08/16 09:22:35;;;;;;;17.73;11.95;;;;;;;20.78;100.00;101343.81;6207019;23;20050;-70
2023/08/16 09:25:03;;;;;;;18.08;11.70;;;;;;;20.88;100.00;101350.88;6208167;23;20103;-70
2023/08/16 09:27:31;;;;;;;15.77;13.13;;;;;;;20.59;100.00;101299.19;6176081;23;20016;-70
2023/08/16 09:30:01;;;;;;;15.60;12.85;;;;;;;21.08;100.00;101343.81;6203010;23;20035;-72
2023/08/16 09:32:29;;;;;;;15.43;12.82;;;;;;;19.76;100.00;101141.75;6207254;23;20035;-70
2023/08/16 09:34:57;;;;;;;18.52;12.50;;;;;;;21.00;100.00;101338.31;6176321;23;20035;-70
2023/08/16 09:37:31;;;;;;;18.57;12.67;;;;;;;20.32;100.00;101162.72;6201568;23;20816;-70
2023/08/16 09:39:59;;;;;;;14.70;11.95;;;;;;;21.33;100.00;101272.28;6206765;23;20510;-71
2023/08/16 09:42:32;;;;;;;15.25;12.40;;;;;;;22.02;100.00;101297.31;6201579;23;20020;-71
2023/08/16 09:44:59;;;;;;;18.05;11.43;;;;;;;21.79;95.64;101185.38;6151165;23;20113;-71
2023/08/16 09:47:28;;;;;;;18.38;12.90;;;;;;;21.90;95.74;101219.09;6184356;23;20021;-70
2023/08/16 09:50:17;;;;;;;14.65;12.73;;;;;;;21.19;97.53;101134.72;6180611;23;20028;-70
2023/08/16 09:52:44;;;;;;;13.63;11.50;;;;;;;21.84;100.00;101289.97;6171934;23;20028;-71
2023/08/16 09:55:11;;;;;;;18.08;12.43;;;;;;;21.50;100.00;101262.78;6180319;23;20042;-70
2023/08/16 09:57:38;;;;;;;14.60;12.23;;;;;;;21.43;100.00;101285.69;6202175;23;20055;-70
2023/08/16 10:00:07;;;;;;;15.13;12.05;;;;;;;21.47;100.00;101305.81;6177241;23;20094;-70
2023/08/16 10:02:34;;;;;;;17.58;12.18;;;;;;;21.44;100.00;101290.88;6206268;23;20085;-70
2023/08/16 10:05:04;;;;;;;18.75;12.27;;;;;;;21.59;100.00;101294.03;6206916;23;20102;-71
2023/08/16 10:07:31;;;;;;;15.85;12.30;;;;;;;21.47;100.00;101276.44;6178531;23;20088;-70
2023/08/16 10:09:58;;;;;;;16.08;12.63;;;;;;;21.17;100.00;101234.56;6179615;23;20024;-70
2023/08/16 10:12:27;;;;;;;14.32;12.15;;;;;;;21.49;100.00;101287.81;6203710;23;20181;-70
2023/08/16 10:14:54;;;;;;;17.42;12.63;;;;;;;20.46;100.00;101147.38;6183797;23;20017;-71
2023/08/16 10:17:21;;;;;;;21.00;12.55;;;;;;;21.36;100.00;101296.03;6173975;23;20106;-70
2023/08/16 10:19:51;;;;;;;18.75;13.00;;;;;;;21.23;100.00;101271.41;6206718;23;20282;-70
2023/08/16 10:22:23;;;;;;;18.00;13.25;;;;;;;21.39;100.00;101322.47;6197974;23;20030;-71
2023/08/16 10:25:11;;;;;;;;;;;;;;;21.50;100.00;101349.09;6208603;23;20024;-73
2023/08/16 10:27:41;;;;;;;18.10;13.30;;;;;;;21.53;100.00;101315.94;6145342;23;19917;-70
2023/08/16 10:30:17;;;;;;;22.73;13.65;;;;;;;21.18;100.00;101246.94;6198240;23;20024;-71
2023/08/16 10:32:46;;;;;;;20.58;13.25;;;;;;;21.84;100.00;101327.38;6202772;23;20699;-70
2023/08/16 10:35:13;;;;;;;19.05;12.93;;;;;;;21.62;100.00;101226.13;6201933;23;20042;-70
2023/08/16 10:37:41;;;;;;;21.00;12.80;;;;;;;21.65;98.95;101191.97;6205682;23;20569;-71
2023/08/16 10:40:21;;;;;;;17.08;13.57;;;;;;;21.29;96.35;101100.03;6169371;23;20103;-71
2023/08/16 10:42:58;;;;;;;13.60;11.95;;;;;;;22.21;97.60;101273.25;6199014;23;20044;-70
2023/08/16 10:45:27;;;;;;;19.30;13.68;;;;;;;21.94;96.52;101225.00;6200720;23;20048;-70
2023/08/16 10:48:20;;;;;;;17.83;13.30;;;;;;;21.88;97.24;101247.78;6202807;23;20012;-70
2023/08/16 10:50:57;;;;;;;15.57;12.40;;;;;;;22.13;96.92;101261.56;6203998;23;20110;-71
2023/08/16 10:53:25;;;;;;;16.10;12.38;;;;;;;22.28;96.44;101263.69;6182973;23;20049;-71
2023/08/16 10:55:55;;;;;;;19.60;13.50;;;;;;;21.39;95.90;101111.53;6174757;23;20027;-71
2023/08/16 10:58:23;;;;;;;15.98;12.48;;;;;;;22.72;95.49;101265.88;6174729;23;20063;-70
2023/08/16 11:00:57;;;;;;;14.50;12.30;;;;;;;22.25;91.58;101094.69;6168827;23;20040;-70
2023/08/16 11:03:34;;;;;;;13.23;11.27;;;;;;;23.54;84.46;101137.50;6176569;23;20101;-71
2023/08/16 11:06:07;;;;;;;19.52;11.80;;;;;;;23.88;82.75;101111.66;6177221;23;20046;-71
2023/08/16 11:08:34;;;;;;;17.77;12.35;;;;;;;23.48;81.31;101048.69;6177905;23;20103;-70
2023/08/16 11:11:03;;;;;;;16.55;12.43;;;;;;;23.44;82.14;101090.19;6199583;23;20024;-71
2023/08/16 11:13:30;;;;;;;16.10;12.45;;;;;;;23.80;82.22;101103.56;6200881;23;20035;-71
2023/08/16 11:15:56;;;;;;;18.40;12.60;;;;;;;24.01;80.86;101051.41;6204196;23;20047;-71